sensor_id;sensor_type;location;lat;lon;timestamp;P1;durP1;ratioP1;P2;durP2;ratioP2
58972;SDS011;44750;52.040;7.472;2023-02-11T00:02:03;19.90;;;9.07;;
58972;SDS011;44750;52.040;7.472;2023-02-11T00:07:03;14.25;;;7.80;;
58972;SDS011;44750;52.040;7.472;2023-02-11T00:12:04;12.98;;;7.97;;
58972;SDS011;44750;52.040;7.472;2023-02-11T00:17:04;14.93;;;8.90;;
58972;SDS011;44750;52.040;7.472;2023-02-11T00:22:04;14.68;;;8.45;;
58972;SDS011;44750;52.040;7.472;2023-02-11T00:27:05;13.30;;;7.93;;
58972;SDS011;44750;52.040;7.472;2023-02-11T00:32:05;22.98;;;10.20;;
58972;SDS011;44750;52.040;7.472;2023-02-11T00:37:06;9.77;;;7.15;;
58972;SDS011;44750;52.040;7.472;2023-02-11T00:42:06;17.63;;;8.73;;
58972;SDS011;44750;52.040;7.472;2023-02-11T00:47:06;16.25;;;8.82;;
58972;SDS011;44750;52.040;7.472;2023-02-11T00:52:07;13.25;;;7.68;;
58972;SDS011;44750;52.040;7.472;2023-02-11T00:57:07;14.48;;;8.70;;
58972;SDS011;44750;52.040;7.472;2023-02-11T01:02:07;18.48;;;6.88;;
58972;SDS011;44750;52.040;7.472;2023-02-11T01:07:08;10.00;;;7.00;;
58972;SDS011;44750;52.040;7.472;2023-02-11T01:12:08;7.30;;;5.55;;
58972;SDS011;44750;52.040;7.472;2023-02-11T01:17:08;15.73;;;7.40;;
58972;SDS011;44750;52.040;7.472;2023-02-11T01:22:09;11.30;;;7.93;;
58972;SDS011;44750;52.040;7.472;2023-02-11T01:27:09;13.93;;;6.93;;
58972;SDS011;44750;52.040;7.472;2023-02-11T01:32:09;12.60;;;7.20;;
58972;SDS011;44750;52.040;7.472;2023-02-11T01:37:09;10.88;;;7.32;;
58972;SDS011;44750;52.040;7.472;2023-02-11T01:42:11;10.02;;;6.82;;
58972;SDS011;44750;52.040;7.472;2023-02-11T01:47:15;9.20;;;5.55;;
58972;SDS011;44750;52.040;7.472;2023-02-11T01:52:27;10.90;;;7.35;;
58972;SDS011;44750;52.040;7.472;2023-02-11T01:57:31;12.80;;;5.93;;
58972;SDS011;44750;52.040;7.472;2023-02-11T02:02:51;7.97;;;5.03;;
58972;SDS011;44750;52.040;7.472;2023-02-11T02:13:37;14.07;;;6.78;;
58972;SDS011;44750;52.040;7.472;2023-02-11T02:29:24;10.50;;;5.77;;
58972;SDS011;44750;52.040;7.472;2023-02-11T02:39:54;9.13;;;5.80;;
58972;SDS011;44750;52.040;7.472;2023-02-11T02:44:58;10.53;;;6.80;;
58972;SDS011;44750;52.040;7.472;2023-02-11T02:49:59;11.20;;;6.45;;
58972;SDS011;44750;52.040;7.472;2023-02-11T02:55:07;7.57;;;5.25;;
58972;SDS011;44750;52.040;7.472;2023-02-11T03:10:35;13.18;;;6.68;;
58972;SDS011;44750;52.040;7.472;2023-02-11T03:15:40;15.95;;;4.55;;
58972;SDS011;44750;52.040;7.472;2023-02-11T03:20:44;5.50;;;4.20;;
58972;SDS011;44750;52.040;7.472;2023-02-11T03:25:51;9.25;;;5.13;;
58972;SDS011;44750;52.040;7.472;2023-02-11T03:31:01;13.15;;;5.07;;
58972;SDS011;44750;52.040;7.472;2023-02-11T03:36:11;7.25;;;4.68;;
58972;SDS011;44750;52.040;7.472;2023-02-11T03:41:14;7.90;;;4.78;;
58972;SDS011;44750;52.040;7.472;2023-02-11T03:46:18;11.60;;;4.45;;
58972;SDS011;44750;52.040;7.472;2023-02-11T03:51:26;5.70;;;4.13;;
58972;SDS011;44750;52.040;7.472;2023-02-11T03:56:30;9.60;;;4.63;;
58972;SDS011;44750;52.040;7.472;2023-02-11T04:01:34;11.60;;;4.45;;
58972;SDS011;44750;52.040;7.472;2023-02-11T04:06:34;13.90;;;4.88;;
58972;SDS011;44750;52.040;7.472;2023-02-11T04:11:35;7.20;;;4.70;;
58972;SDS011;44750;52.040;7.472;2023-02-11T04:16:35;8.60;;;4.97;;
58972;SDS011;44750;52.040;7.472;2023-02-11T04:21:35;12.38;;;4.78;;
58972;SDS011;44750;52.040;7.472;2023-02-11T04:26:35;7.05;;;5.15;;
58972;SDS011;44750;52.040;7.472;2023-02-11T04:31:35;10.25;;;4.68;;
58972;SDS011;44750;52.040;7.472;2023-02-11T04:36:36;6.70;;;4.53;;
58972;SDS011;44750;52.040;7.472;2023-02-11T04:41:36;9.57;;;4.80;;
58972;SDS011;44750;52.040;7.472;2023-02-11T04:46:36;8.20;;;5.40;;
58972;SDS011;44750;52.040;7.472;2023-02-11T04:51:36;8.43;;;4.60;;
58972;SDS011;44750;52.040;7.472;2023-02-11T04:56:37;8.60;;;4.95;;
58972;SDS011;44750;52.040;7.472;2023-02-11T05:01:38;9.52;;;5.38;;
58972;SDS011;44750;52.040;7.472;2023-02-11T05:06:38;6.00;;;4.70;;
58972;SDS011;44750;52.040;7.472;2023-02-11T05:11:38;17.40;;;5.82;;
58972;SDS011;44750;52.040;7.472;2023-02-11T05:16:39;8.80;;;5.63;;
58972;SDS011;44750;52.040;7.472;2023-02-11T05:21:39;8.07;;;4.82;;
58972;SDS011;44750;52.040;7.472;2023-02-11T05:26:39;12.82;;;5.60;;
58972;SDS011;44750;52.040;7.472;2023-02-11T05:31:39;6.38;;;4.60;;
58972;SDS011;44750;52.040;7.472;2023-02-11T05:36:39;6.40;;;4.22;;
58972;SDS011;44750;52.040;7.472;2023-02-11T05:41:40;10.48;;;5.00;;
58972;SDS011;44750;52.040;7.472;2023-02-11T05:46:40;7.43;;;4.88;;
58972;SDS011;44750;52.040;7.472;2023-02-11T05:51:40;5.50;;;4.80;;
58972;SDS011;44750;52.040;7.472;2023-02-11T05:56:40;13.95;;;5.18;;
58972;SDS011;44750;52.040;7.472;2023-02-11T06:01:41;14.38;;;4.40;;
58972;SDS011;44750;52.040;7.472;2023-02-11T06:06:41;10.85;;;5.43;;
58972;SDS011;44750;52.040;7.472;2023-02-11T06:11:42;7.53;;;4.47;;
58972;SDS011;44750;52.040;7.472;2023-02-11T06:16:42;9.45;;;5.30;;
58972;SDS011;44750;52.040;7.472;2023-02-11T06:21:42;14.73;;;5.65;;
58972;SDS011;44750;52.040;7.472;2023-02-11T06:26:42;14.85;;;5.72;;
58972;SDS011;44750;52.040;7.472;2023-02-11T06:31:43;9.13;;;6.13;;
58972;SDS011;44750;52.040;7.472;2023-02-11T06:36:43;14.38;;;6.50;;
58972;SDS011;44750;52.040;7.472;2023-02-11T06:41:43;11.25;;;5.55;;
58972;SDS011;44750;52.040;7.472;2023-02-11T06:46:43;6.60;;;5.22;;
58972;SDS011;44750;52.040;7.472;2023-02-11T06:51:44;11.85;;;7.00;;
58972;SDS011;44750;52.040;7.472;2023-02-11T06:56:44;10.67;;;6.23;;
58972;SDS011;44750;52.040;7.472;2023-02-11T07:01:44;15.07;;;6.45;;
58972;SDS011;44750;52.040;7.472;2023-02-11T07:06:45;17.02;;;6.40;;
58972;SDS011;44750;52.040;7.472;2023-02-11T07:11:45;22.27;;;7.57;;
58972;SDS011;44750;52.040;7.472;2023-02-11T07:16:45;17.85;;;6.60;;
58972;SDS011;44750;52.040;7.472;2023-02-11T07:21:46;14.48;;;7.93;;
58972;SDS011;44750;52.040;7.472;2023-02-11T07:26:46;10.23;;;6.63;;
58972;SDS011;44750;52.040;7.472;2023-02-11T07:31:46;13.65;;;7.40;;
58972;SDS011;44750;52.040;7.472;2023-02-11T07:36:46;13.65;;;7.03;;
58972;SDS011;44750;52.040;7.472;2023-02-11T07:41:47;13.17;;;7.97;;
58972;SDS011;44750;52.040;7.472;2023-02-11T07:46:47;10.77;;;6.75;;
58972;SDS011;44750;52.040;7.472;2023-02-11T07:51:47;10.00;;;7.05;;
58972;SDS011;44750;52.040;7.472;2023-02-11T07:56:48;12.70;;;7.45;;
58972;SDS011;44750;52.040;7.472;2023-02-11T08:01:48;17.73;;;8.60;;
58972;SDS011;44750;52.040;7.472;2023-02-11T08:06:48;10.38;;;7.28;;
58972;SDS011;44750;52.040;7.472;2023-02-11T08:11:48;15.60;;;8.35;;
58972;SDS011;44750;52.040;7.472;2023-02-11T08:16:48;9.52;;;7.53;;
58972;SDS011;44750;52.040;7.472;2023-02-11T08:21:49;12.82;;;8.27;;
58972;SDS011;44750;52.040;7.472;2023-02-11T08:26:49;19.30;;;7.45;;
58972;SDS011;44750;52.040;7.472;2023-02-11T08:31:50;10.68;;;7.50;;
58972;SDS011;44750;52.040;7.472;2023-02-11T08:36:50;8.48;;;6.35;;
58972;SDS011;44750;52.040;7.472;2023-02-11T08:41:51;27.55;;;8.10;;
58972;SDS011;44750;52.040;7.472;2023-02-11T08:46:53;14.32;;;8.85;;
58972;SDS011;44750;52.040;7.472;2023-02-11T08:51:53;8.20;;;7.05;;
58972;SDS011;44750;52.040;7.472;2023-02-11T08:56:53;15.20;;;7.78;;
58972;SDS011;44750;52.040;7.472;2023-02-11T09:01:53;9.75;;;7.03;;
58972;SDS011;44750;52.040;7.472;2023-02-11T09:06:54;21.83;;;7.50;;
58972;SDS011;44750;52.040;7.472;2023-02-11T09:11:54;11.73;;;7.68;;
58972;SDS011;44750;52.040;7.472;2023-02-11T09:16:54;17.50;;;9.73;;
58972;SDS011;44750;52.040;7.472;2023-02-11T09:21:54;9.68;;;7.57;;
58972;SDS011;44750;52.040;7.472;2023-02-11T09:26:54;11.60;;;7.55;;
58972;SDS011;44750;52.040;7.472;2023-02-11T09:31:55;13.55;;;7.55;;
58972;SDS011;44750;52.040;7.472;2023-02-11T09:36:55;15.90;;;8.65;;
58972;SDS011;44750;52.040;7.472;2023-02-11T09:47:19;10.40;;;7.80;;
58972;SDS011;44750;52.040;7.472;2023-02-11T09:57:33;12.85;;;6.72;;
58972;SDS011;44750;52.040;7.472;2023-02-11T10:02:51;11.82;;;7.50;;
58972;SDS011;44750;52.040;7.472;2023-02-11T10:23:24;9.98;;;7.00;;
58972;SDS011;44750;52.040;7.472;2023-02-11T10:28:29;20.58;;;8.43;;
58972;SDS011;44750;52.040;7.472;2023-02-11T10:38:42;19.67;;;8.68;;
58972;SDS011;44750;52.040;7.472;2023-02-11T10:43:42;14.73;;;9.43;;
58972;SDS011;44750;52.040;7.472;2023-02-11T10:48:44;14.85;;;8.27;;
58972;SDS011;44750;52.040;7.472;2023-02-11T10:54:10;21.00;;;8.90;;
58972;SDS011;44750;52.040;7.472;2023-02-11T10:59:30;14.82;;;7.88;;
58972;SDS011;44750;52.040;7.472;2023-02-11T11:04:36;19.17;;;9.35;;
58972;SDS011;44750;52.040;7.472;2023-02-11T11:09:44;33.38;;;7.65;;
58972;SDS011;44750;52.040;7.472;2023-02-11T11:14:52;14.75;;;9.57;;
58972;SDS011;44750;52.040;7.472;2023-02-11T11:20:20;15.88;;;8.32;;
58972;SDS011;44750;52.040;7.472;2023-02-11T11:25:25;14.05;;;8.50;;
58972;SDS011;44750;52.040;7.472;2023-02-11T11:30:38;22.35;;;9.93;;
58972;SDS011;44750;52.040;7.472;2023-02-11T11:35:41;21.65;;;9.23;;
58972;SDS011;44750;52.040;7.472;2023-02-11T11:46:18;13.80;;;8.82;;
58972;SDS011;44750;52.040;7.472;2023-02-11T11:51:22;10.55;;;7.75;;
58972;SDS011;44750;52.040;7.472;2023-02-11T11:56:23;12.20;;;8.80;;
58972;SDS011;44750;52.040;7.472;2023-02-11T12:06:40;12.38;;;7.35;;
58972;SDS011;44750;52.040;7.472;2023-02-11T12:16:52;12.30;;;7.63;;
58972;SDS011;44750;52.040;7.472;2023-02-11T12:33:01;12.38;;;8.52;;
58972;SDS011;44750;52.040;7.472;2023-02-11T12:38:18;14.32;;;9.18;;
58972;SDS011;44750;52.040;7.472;2023-02-11T12:43:24;11.68;;;7.95;;
58972;SDS011;44750;52.040;7.472;2023-02-11T13:05:01;11.57;;;7.85;;
58972;SDS011;44750;52.040;7.472;2023-02-11T13:10:18;14.13;;;7.05;;
58972;SDS011;44750;52.040;7.472;2023-02-11T13:15:25;12.13;;;7.85;;
58972;SDS011;44750;52.040;7.472;2023-02-11T13:31:02;10.95;;;7.15;;
58972;SDS011;44750;52.040;7.472;2023-02-11T13:41:17;11.05;;;6.90;;
58972;SDS011;44750;52.040;7.472;2023-02-11T13:46:29;14.17;;;6.77;;
58972;SDS011;44750;52.040;7.472;2023-02-11T13:52:04;13.93;;;6.40;;
58972;SDS011;44750;52.040;7.472;2023-02-11T14:02:26;11.05;;;5.88;;
58972;SDS011;44750;52.040;7.472;2023-02-11T14:07:30;12.02;;;7.28;;
58972;SDS011;44750;52.040;7.472;2023-02-11T14:12:33;7.75;;;5.53;;
58972;SDS011;44750;52.040;7.472;2023-02-11T14:17:33;8.82;;;5.00;;
58972;SDS011;44750;52.040;7.472;2023-02-11T14:22:42;8.17;;;5.67;;
58972;SDS011;44750;52.040;7.472;2023-02-11T14:43:40;8.07;;;5.47;;
58972;SDS011;44750;52.040;7.472;2023-02-11T14:48:53;8.98;;;5.75;;
58972;SDS011;44750;52.040;7.472;2023-02-11T14:53:57;11.87;;;6.10;;
58972;SDS011;44750;52.040;7.472;2023-02-11T14:59:02;9.50;;;5.15;;
58972;SDS011;44750;52.040;7.472;2023-02-11T15:04:03;6.28;;;3.95;;
58972;SDS011;44750;52.040;7.472;2023-02-11T15:09:11;5.43;;;4.40;;
58972;SDS011;44750;52.040;7.472;2023-02-11T15:14:18;14.90;;;5.15;;
58972;SDS011;44750;52.040;7.472;2023-02-11T15:19:23;12.10;;;4.78;;
58972;SDS011;44750;52.040;7.472;2023-02-11T15:29:26;6.55;;;4.25;;
58972;SDS011;44750;52.040;7.472;2023-02-11T15:34:33;6.50;;;4.03;;
58972;SDS011;44750;52.040;7.472;2023-02-11T15:39:37;10.43;;;5.28;;
58972;SDS011;44750;52.040;7.472;2023-02-11T15:44:38;7.53;;;4.30;;
58972;SDS011;44750;52.040;7.472;2023-02-11T15:49:42;10.20;;;4.68;;
58972;SDS011;44750;52.040;7.472;2023-02-11T15:54:44;5.70;;;4.47;;
58972;SDS011;44750;52.040;7.472;2023-02-11T15:59:47;9.15;;;4.82;;
58972;SDS011;44750;52.040;7.472;2023-02-11T16:04:53;6.07;;;5.05;;
58972;SDS011;44750;52.040;7.472;2023-02-11T16:09:56;9.90;;;5.43;;
58972;SDS011;44750;52.040;7.472;2023-02-11T16:14:57;10.25;;;4.28;;
58972;SDS011;44750;52.040;7.472;2023-02-11T16:19:57;8.30;;;4.63;;
58972;SDS011;44750;52.040;7.472;2023-02-11T16:24:58;8.90;;;5.43;;
58972;SDS011;44750;52.040;7.472;2023-02-11T16:29:58;6.43;;;4.57;;
58972;SDS011;44750;52.040;7.472;2023-02-11T16:34:59;9.95;;;4.70;;
58972;SDS011;44750;52.040;7.472;2023-02-11T16:39:59;7.88;;;5.07;;
58972;SDS011;44750;52.040;7.472;2023-02-11T16:44:59;8.75;;;5.05;;
58972;SDS011;44750;52.040;7.472;2023-02-11T16:49:59;7.60;;;4.63;;
58972;SDS011;44750;52.040;7.472;2023-02-11T16:55:02;9.65;;;5.10;;
58972;SDS011;44750;52.040;7.472;2023-02-11T17:00:05;11.90;;;5.28;;
58972;SDS011;44750;52.040;7.472;2023-02-11T17:05:07;7.50;;;5.07;;
58972;SDS011;44750;52.040;7.472;2023-02-11T17:10:20;7.25;;;4.97;;
58972;SDS011;44750;52.040;7.472;2023-02-11T17:15:22;8.73;;;4.70;;
58972;SDS011;44750;52.040;7.472;2023-02-11T17:20:22;9.50;;;4.43;;
58972;SDS011;44750;52.040;7.472;2023-02-11T17:25:23;10.83;;;5.73;;
58972;SDS011;44750;52.040;7.472;2023-02-11T17:30:23;6.00;;;4.78;;
58972;SDS011;44750;52.040;7.472;2023-02-11T17:35:23;8.00;;;5.43;;
58972;SDS011;44750;52.040;7.472;2023-02-11T17:40:23;10.55;;;5.95;;
58972;SDS011;44750;52.040;7.472;2023-02-11T17:45:24;13.35;;;8.32;;
58972;SDS011;44750;52.040;7.472;2023-02-11T17:50:24;11.15;;;6.65;;
58972;SDS011;44750;52.040;7.472;2023-02-11T17:55:24;9.35;;;6.72;;
58972;SDS011;44750;52.040;7.472;2023-02-11T18:00:24;12.05;;;5.40;;
58972;SDS011;44750;52.040;7.472;2023-02-11T18:05:25;10.73;;;4.60;;
58972;SDS011;44750;52.040;7.472;2023-02-11T18:10:25;14.70;;;5.28;;
58972;SDS011;44750;52.040;7.472;2023-02-11T18:15:25;13.73;;;5.80;;
58972;SDS011;44750;52.040;7.472;2023-02-11T18:20:26;8.15;;;4.88;;
58972;SDS011;44750;52.040;7.472;2023-02-11T18:25:26;7.32;;;4.65;;
58972;SDS011;44750;52.040;7.472;2023-02-11T18:30:27;10.73;;;5.53;;
58972;SDS011;44750;52.040;7.472;2023-02-11T18:35:27;11.00;;;5.28;;
58972;SDS011;44750;52.040;7.472;2023-02-11T18:40:28;9.77;;;5.05;;
58972;SDS011;44750;52.040;7.472;2023-02-11T18:45:28;8.73;;;5.15;;
58972;SDS011;44750;52.040;7.472;2023-02-11T18:50:28;4.70;;;3.75;;
58972;SDS011;44750;52.040;7.472;2023-02-11T18:55:28;6.47;;;4.53;;
58972;SDS011;44750;52.040;7.472;2023-02-11T19:00:29;8.20;;;4.72;;
58972;SDS011;44750;52.040;7.472;2023-02-11T19:05:29;16.77;;;4.57;;
58972;SDS011;44750;52.040;7.472;2023-02-11T19:10:29;11.80;;;5.55;;
58972;SDS011;44750;52.040;7.472;2023-02-11T19:15:29;7.63;;;4.95;;
58972;SDS011;44750;52.040;7.472;2023-02-11T19:20:30;9.85;;;6.68;;
58972;SDS011;44750;52.040;7.472;2023-02-11T19:25:30;6.57;;;4.88;;
58972;SDS011;44750;52.040;7.472;2023-02-11T19:30:30;10.13;;;5.95;;
58972;SDS011;44750;52.040;7.472;2023-02-11T19:35:32;7.20;;;5.00;;
58972;SDS011;44750;52.040;7.472;2023-02-11T19:40:33;12.85;;;5.63;;
58972;SDS011;44750;52.040;7.472;2023-02-11T19:45:36;6.40;;;4.43;;
58972;SDS011;44750;52.040;7.472;2023-02-11T19:50:37;7.90;;;4.60;;
58972;SDS011;44750;52.040;7.472;2023-02-11T19:55:37;8.50;;;5.20;;
58972;SDS011;44750;52.040;7.472;2023-02-11T20:00:37;8.85;;;5.25;;
58972;SDS011;44750;52.040;7.472;2023-02-11T20:05:38;12.75;;;5.28;;
58972;SDS011;44750;52.040;7.472;2023-02-11T20:10:39;10.02;;;4.93;;
58972;SDS011;44750;52.040;7.472;2023-02-11T20:15:39;11.07;;;5.60;;
58972;SDS011;44750;52.040;7.472;2023-02-11T20:20:39;9.85;;;5.07;;
58972;SDS011;44750;52.040;7.472;2023-02-11T20:25:39;11.48;;;5.15;;
58972;SDS011;44750;52.040;7.472;2023-02-11T20:30:40;7.85;;;5.25;;
58972;SDS011;44750;52.040;7.472;2023-02-11T20:35:40;12.57;;;5.47;;
58972;SDS011;44750;52.040;7.472;2023-02-11T20:40:40;4.88;;;4.13;;
58972;SDS011;44750;52.040;7.472;2023-02-11T20:45:40;6.63;;;5.45;;
58972;SDS011;44750;52.040;7.472;2023-02-11T20:50:41;15.52;;;5.00;;
58972;SDS011;44750;52.040;7.472;2023-02-11T20:55:41;6.68;;;4.72;;
58972;SDS011;44750;52.040;7.472;2023-02-11T21:00:41;6.80;;;4.70;;
58972;SDS011;44750;52.040;7.472;2023-02-11T21:05:41;10.95;;;4.30;;
58972;SDS011;44750;52.040;7.472;2023-02-11T21:10:42;6.43;;;4.30;;
58972;SDS011;44750;52.040;7.472;2023-02-11T21:15:42;9.10;;;6.22;;
58972;SDS011;44750;52.040;7.472;2023-02-11T21:20:42;7.32;;;5.28;;
58972;SDS011;44750;52.040;7.472;2023-02-11T21:25:42;12.70;;;6.13;;
58972;SDS011;44750;52.040;7.472;2023-02-11T21:30:43;7.63;;;4.90;;
58972;SDS011;44750;52.040;7.472;2023-02-11T21:35:43;6.13;;;4.22;;
58972;SDS011;44750;52.040;7.472;2023-02-11T21:40:43;7.85;;;5.22;;
58972;SDS011;44750;52.040;7.472;2023-02-11T21:45:44;7.28;;;5.10;;
58972;SDS011;44750;52.040;7.472;2023-02-11T21:50:46;7.30;;;4.13;;
58972;SDS011;44750;52.040;7.472;2023-02-11T21:55:47;7.72;;;5.50;;
58972;SDS011;44750;52.040;7.472;2023-02-11T22:00:47;25.02;;;5.20;;
58972;SDS011;44750;52.040;7.472;2023-02-11T22:05:47;13.93;;;5.82;;
58972;SDS011;44750;52.040;7.472;2023-02-11T22:10:47;7.32;;;4.80;;
58972;SDS011;44750;52.040;7.472;2023-02-11T22:15:55;4.72;;;4.05;;
58972;SDS011;44750;52.040;7.472;2023-02-11T22:21:00;10.57;;;4.90;;
58972;SDS011;44750;52.040;7.472;2023-02-11T22:26:15;7.35;;;4.38;;
58972;SDS011;44750;52.040;7.472;2023-02-11T22:31:19;11.30;;;5.57;;
58972;SDS011;44750;52.040;7.472;2023-02-11T22:36:38;9.73;;;4.95;;
58972;SDS011;44750;52.040;7.472;2023-02-11T22:41:40;5.43;;;4.38;;
58972;SDS011;44750;52.040;7.472;2023-02-11T22:46:42;8.13;;;4.68;;
58972;SDS011;44750;52.040;7.472;2023-02-11T22:51:42;9.95;;;5.07;;
58972;SDS011;44750;52.040;7.472;2023-02-11T22:56:43;6.97;;;4.95;;
58972;SDS011;44750;52.040;7.472;2023-02-11T23:01:44;6.60;;;4.45;;
58972;SDS011;44750;52.040;7.472;2023-02-11T23:06:45;7.57;;;4.83;;
58972;SDS011;44750;52.040;7.472;2023-02-11T23:11:45;10.47;;;4.37;;
58972;SDS011;44750;52.040;7.472;2023-02-11T23:16:48;5.90;;;3.80;;
58972;SDS011;44750;52.040;7.472;2023-02-11T23:21:49;7.07;;;4.00;;
58972;SDS011;44750;52.040;7.472;2023-02-11T23:26:50;8.57;;;5.05;;
58972;SDS011;44750;52.040;7.472;2023-02-11T23:31:50;13.13;;;4.50;;
58972;SDS011;44750;52.040;7.472;2023-02-11T23:36:51;8.75;;;6.13;;
58972;SDS011;44750;52.040;7.472;2023-02-11T23:41:51;9.23;;;5.18;;
58972;SDS011;44750;52.040;7.472;2023-02-11T23:46:52;9.45;;;5.60;;
58972;SDS011;44750;52.040;7.472;2023-02-11T23:51:52;9.65;;;4.85;;
58972;SDS011;44750;52.040;7.472;2023-02-11T23:56:52;7.80;;;4.45;;
